x

Ilm3 - 27 Miles Se Of Wrightsville Beach, Nc (41037) Weather Station

8:08am - Mon 18th Dec 2017 All times are EST. -5 hours from GMT.

  • Wind
    2mph, 4mph gusts
  • Sea Temp 57°f
  • Air Temp 59°f
  • Sea Pressure 1021.9mb
  • Ilm3 - 27 Miles Se Of Wrightsville Beach, Nc
  • Ilm3 - 27 Miles Se Of Wrightsville Beach, Nc

More Historic Weather Station data

Upgrade to MSW Pro to gain access to the past 30 days of data for over 8000 Wavebouys and Weather Stations around the globe.

Join

Comparision Forecast

View Surf forecast
   
Mon 12/18 8:08am 2 4 mph 1021.9mb 57f 59f
7:08am  -  2 mph 1021.5mb 58f 57f
6:08am 4 4 mph 1021.5mb 58f 58f
4:08am 4 7 mph 1021.3mb 61f 59f
3:08am 4 7 mph 1022.2mb 61f 59f
2:08am 4 4 mph 1022.5mb 60f 59f
1:08am 7 9 mph 1022.6mb 60f 59f
Sun 12/17 11:08pm 4 7 mph 1023.3mb 61f 58f
10:08pm 4 7 mph 1023.7mb 61f 58f
9:08pm 7 7 mph 1024mb 61f 58f
8:08pm 7 7 mph 1023.7mb 61f 58f
7:08pm 4 7 mph 1023.2mb 61f 57f
6:08pm 2 2 mph 1023.3mb 61f 57f
5:08pm  -  2 mph 1023.5mb 61f 56f
4:08pm 2 4 mph 1023.5mb 61f 57f
3:08pm 2 4 mph 1023.8mb 61f 57f
2:08pm 2 7 mph 1024mb 62f 56f
1:08pm 2 4 mph 1024.5mb 62f 59f
12:08pm 2 7 mph 1025.4mb 62f 56f
11:08am 2 4 mph 1026.3mb 62f 55f
10:08am 2 7 mph 1026.7mb 61f 55f
9:08am 4 7 mph 1026.8mb 61f 54f
8:08am 4 7 mph 1026.7mb 62f 53f
7:08am 7 11 mph 1026.8mb 62f 52f
6:08am 7 13 mph 1026mb 62f 52f
5:08am 7 13 mph 1025.3mb 63f 52f
4:08am 9 16 mph 1025.6mb 63f 52f
3:08am 9 16 mph 1026mb 63f 52f
2:08am 11 18 mph 1026.1mb 63f 53f
1:08am 11 18 mph 1026mb 63f 52f
Sat 12/16 11:08pm 9 16 mph 1026.4mb 63f 52f
10:08pm 11 18 mph 1026.1mb 63f 52f
9:08pm 11 18 mph 1025.6mb 63f 52f
8:08pm 9 16 mph 1025.3mb 63f 51f
7:08pm 9 16 mph 1025.2mb 63f 50f
6:08pm 11 16 mph 1025mb 63f 49f
5:08pm 9 13 mph 1024.4mb 63f 48f
4:08pm 7 11 mph 1024mb 63f 48f
3:08pm 4 9 mph 1024.1mb 63f 47f
2:08pm 7 11 mph 1024.2mb 64f 46f
1:08pm 4 11 mph 1024.4mb 63f 46f
12:08pm 7 16 mph 1025.1mb 63f 45f
11:08am 13 20 mph 1026.3mb 63f 45f
10:08am 13 20 mph 1026.4mb 63f 45f
9:08am 16 25 mph 1025.5mb 63f 45f
8:08am 18 31 mph 1024.9mb 63f 45f
7:08am 16 29 mph 1023.9mb 63f 45f
6:08am 18 25 mph 1023mb 63f 45f
5:08am 18 31 mph 1022.1mb 64f 45f
4:08am 18 27 mph 1021.5mb 64f 46f
3:08am 20 29 mph 1021.4mb 64f 47f
2:08am 18 27 mph 1020.5mb 64f 48f
1:08am 20 29 mph 1020mb 64f 48f
12:08am 20 29 mph 1019.2mb 64f 50f
Fri 12/15 11:08pm 20 31 mph 1018.9mb 64f 51f
10:08pm 22 29 mph 1018.1mb 64f 53f
9:08pm 22 34 mph 1016.9mb 64f 56f
8:08pm 25 34 mph 1015.6mb 64f 59f
7:08pm 25 31 mph 1014.8mb 64f 60f
6:08pm 22 29 mph 1014.3mb 64f 60f
5:08pm 22 31 mph 1013.4mb 64f 60f
4:08pm 25 34 mph 1013.5mb 64f 59f
3:08pm 22 31 mph 1012.9mb 64f 60f
2:08pm 20 25 mph 1012.9mb 64f 59f
1:08pm 18 25 mph 1013.2mb 64f 59f
12:08pm 16 25 mph 1014.4mb 64f 59f
11:08am 13 20 mph 1015.6mb 64f 59f
10:08am 11 18 mph 1016mb 64f 58f
9:08am 11 16 mph 1015.7mb 64f 58f
8:08am 7 13 mph 1015.4mb 64f 58f
7:08am 7 13 mph 1015.4mb 64f 57f
6:08am 7 9 mph 1015.6mb 64f 57f
5:08am 7 13 mph 1015.5mb 64f 57f
4:08am 4 9 mph 1015.3mb 64f 57f
3:08am 7 9 mph 1015.5mb 64f 57f
2:08am 7 11 mph 1015.4mb 65f 57f
1:08am 9 13 mph 1015.7mb 65f 57f
Thu 12/14 11:08pm 7 11 mph 1015.8mb 64f 58f
10:08pm 9 13 mph 1015.7mb 65f 58f
9:08pm 11 18 mph 1015.7mb 65f 58f
8:08pm 13 18 mph 1015.1mb 65f 58f
7:08pm 13 18 mph 1014.7mb 65f 58f
6:08pm 13 22 mph 1014.1mb 65f 57f